Time;durP1;ratioP1;P1;durP2;ratioP2;P2;SDS_P1;SDS_P2;PMS_P1;PMS_P2;Temp;Humidity;BMP_temperature;BMP_pressure;BME280_temperature;BME280_humidity;BME280_pressure;Samples;Min_cycle;Max_cycle;Signal;HPM_P1;HPM_P2
2022/06/01 00:01:04;;;;;;;15.75;14.15;;;;;;;;;;4990545;28;20212;-69
2022/06/01 00:03:30;;;;;;;16.30;14.70;;;;;;;;;;4991877;28;20217;-73
2022/06/01 00:05:55;;;;;;;16.55;14.77;;;;;;;;;;4977920;28;20316;-72
2022/06/01 00:08:21;;;;;;;16.77;14.73;;;;;;;;;;4992178;28;20675;-71
2022/06/01 00:10:46;;;;;;;18.58;16.65;;;;;;;;;;4980925;28;20237;-72
2022/06/01 00:13:12;;;;;;;17.85;15.95;;;;;;;;;;5001275;28;20208;-71
2022/06/01 00:15:37;;;;;;;19.23;17.30;;;;;;;;;;4982648;28;20280;-71
2022/06/01 00:18:02;;;;;;;18.35;16.52;;;;;;;;;;4981884;28;20209;-71
2022/06/01 00:20:28;;;;;;;19.25;17.35;;;;;;;;;;4982670;28;20228;-71
2022/06/01 00:22:53;;;;;;;21.90;17.90;;;;;;;;;;4992434;28;20590;-72
2022/06/01 00:25:18;;;;;;;19.42;17.48;;;;;;;;;;4982022;28;21139;-71
2022/06/01 00:27:44;;;;;;;19.77;17.77;;;;;;;;;;4975558;28;20676;-71
2022/06/01 00:30:10;;;;;;;19.08;17.15;;;;;;;;;;4973733;28;20220;-71
2022/06/01 00:32:35;;;;;;;19.13;17.10;;;;;;;;;;4989296;28;20213;-71
2022/06/01 00:35:01;;;;;;;20.20;17.17;;;;;;;;;;4981779;28;20217;-69
2022/06/01 00:37:27;;;;;;;19.48;17.25;;;;;;;;;;4981833;28;20651;-71
2022/06/01 00:39:53;;;;;;;19.95;17.95;;;;;;;;;;5012407;28;20220;-70
2022/06/01 00:42:20;;;;;;;19.20;17.30;;;;;;;;;;5001268;28;20278;-70
2022/06/01 00:44:46;;;;;;;20.58;17.98;;;;;;;;;;4983872;28;20232;-70
2022/06/01 00:47:11;;;;;;;19.88;17.77;;;;;;;;;;4982292;28;20209;-69
2022/06/01 00:49:37;;;;;;;20.35;18.35;;;;;;;;;;4992129;28;20215;-69
2022/06/01 00:52:02;;;;;;;20.48;18.27;;;;;;;;;;4974480;28;21661;-69
2022/06/01 00:54:28;;;;;;;20.45;18.27;;;;;;;;;;4974424;28;20386;-69
2022/06/01 00:56:55;;;;;;;20.58;18.50;;;;;;;;;;4979389;28;20323;-70
2022/06/01 00:59:21;;;;;;;21.50;19.30;;;;;;;;;;4999769;28;20259;-69
2022/06/01 01:01:46;;;;;;;20.00;18.00;;;;;;;;;;5016211;28;20295;-69
2022/06/01 01:04:12;;;;;;;19.20;17.27;;;;;;;;;;5001339;28;20312;-69
2022/06/01 01:06:38;;;;;;;21.80;18.33;;;;;;;;;;5016118;28;20282;-69
2022/06/01 01:09:03;;;;;;;20.27;18.02;;;;;;;;;;5001181;28;20234;-69
2022/06/01 01:11:29;;;;;;;20.92;18.73;;;;;;;;;;5013582;28;20609;-69
2022/06/01 01:13:55;;;;;;;21.40;19.27;;;;;;;;;;4985311;28;20248;-69
2022/06/01 01:16:20;;;;;;;21.73;19.45;;;;;;;;;;4973929;28;20232;-69
2022/06/01 01:18:45;;;;;;;22.67;20.48;;;;;;;;;;4976302;28;20217;-69
2022/06/01 01:21:14;;;;;;;21.95;19.65;;;;;;;;;;4981118;28;20256;-69
2022/06/01 01:23:45;;;;;;;22.70;20.40;;;;;;;;;;5016130;28;20247;-68
2022/06/01 01:26:11;;;;;;;22.60;20.30;;;;;;;;;;5016243;28;20255;-68
2022/06/01 01:28:36;;;;;;;22.48;20.08;;;;;;;;;;5015415;28;20622;-68
2022/06/01 01:31:08;;;;;;;20.42;18.33;;;;;;;;;;5001105;28;20322;-67
2022/06/01 01:33:33;;;;;;;20.73;18.55;;;;;;;;;;4995495;28;20216;-68
2022/06/01 01:36:02;;;;;;;21.42;19.33;;;;;;;;;;4974895;28;20213;-70
2022/06/01 01:38:33;;;;;;;22.15;19.90;;;;;;;;;;4993021;28;20209;-67
2022/06/01 01:41:02;;;;;;;22.35;20.15;;;;;;;;;;5009142;28;20216;-66
2022/06/01 01:43:27;;;;;;;20.83;18.73;;;;;;;;;;4994338;28;20213;-67
2022/06/01 01:45:52;;;;;;;21.27;19.08;;;;;;;;;;4997205;28;20240;-67
2022/06/01 01:48:17;;;;;;;21.05;18.33;;;;;;;;;;4980970;28;20680;-67
2022/06/01 01:50:43;;;;;;;21.65;19.40;;;;;;;;;;4982501;28;20214;-65
2022/06/01 01:53:08;;;;;;;22.27;19.98;;;;;;;;;;4981570;28;20205;-66
2022/06/01 01:55:34;;;;;;;22.63;20.27;;;;;;;;;;4981027;28;20233;-67
2022/06/01 01:58:01;;;;;;;22.75;20.45;;;;;;;;;;4979145;28;20332;-68
2022/06/01 02:00:28;;;;;;;23.50;20.33;;;;;;;;;;4976932;28;20371;-68
2022/06/01 02:02:53;;;;;;;21.00;18.90;;;;;;;;;;5011617;28;20695;-68
2022/06/01 02:08:19;;;;;;;21.35;19.25;;;;;;;;;;5003954;28;20274;-67
2022/06/01 02:13:28;;;;;;;20.35;18.25;;;;;;;;;;4999485;28;20240;-68
2022/06/01 02:15:53;;;;;;;21.33;19.13;;;;;;;;;;4999586;28;20319;-69
2022/06/01 02:18:20;;;;;;;22.95;20.65;;;;;;;;;;4984465;28;20209;-68
2022/06/01 02:20:46;;;;;;;22.50;20.10;;;;;;;;;;4977977;28;20279;-69
2022/06/01 02:23:13;;;;;;;25.08;21.20;;;;;;;;;;4995399;28;20200;-70
2022/06/01 02:25:38;;;;;;;20.88;18.67;;;;;;;;;;4996424;28;20570;-69
2022/06/01 02:28:04;;;;;;;20.77;18.67;;;;;;;;;;5003191;28;20219;-68
2022/06/01 02:30:33;;;;;;;22.73;20.27;;;;;;;;;;5018874;28;20219;-69
2022/06/01 02:32:59;;;;;;;21.45;19.05;;;;;;;;;;5004363;28;20340;-69
2022/06/01 02:35:24;;;;;;;23.73;21.27;;;;;;;;;;4998870;28;20685;-69
2022/06/01 02:37:50;;;;;;;22.00;19.70;;;;;;;;;;4983857;28;20217;-69
2022/06/01 02:40:17;;;;;;;23.27;20.52;;;;;;;;;;4983750;28;20224;-69
2022/06/01 02:42:43;;;;;;;23.50;20.90;;;;;;;;;;4999263;28;20224;-69
2022/06/01 02:45:08;;;;;;;23.00;20.60;;;;;;;;;;4976103;28;20275;-69
2022/06/01 02:47:35;;;;;;;22.45;19.60;;;;;;;;;;4976849;28;20566;-69
2022/06/01 02:50:01;;;;;;;22.52;20.20;;;;;;;;;;5014660;28;20235;-66
2022/06/01 02:52:27;;;;;;;23.02;20.60;;;;;;;;;;4988035;28;20213;-69
2022/06/01 02:54:52;;;;;;;22.13;19.48;;;;;;;;;;4999472;28;20274;-70
2022/06/01 02:57:17;;;;;;;22.58;20.27;;;;;;;;;;4999333;28;20221;-68
2022/06/01 02:59:43;;;;;;;21.67;19.38;;;;;;;;;;4983988;28;20225;-68
2022/06/01 03:02:09;;;;;;;21.77;19.42;;;;;;;;;;4984114;28;20201;-68
2022/06/01 03:04:35;;;;;;;21.45;19.35;;;;;;;;;;4996337;28;20249;-68
2022/06/01 03:07:02;;;;;;;22.10;19.80;;;;;;;;;;4994931;28;20208;-66
2022/06/01 03:09:27;;;;;;;22.70;19.38;;;;;;;;;;4994159;28;20416;-68
2022/06/01 03:11:53;;;;;;;18.38;16.30;;;;;;;;;;4997361;28;20270;-68
2022/06/01 03:14:18;;;;;;;18.92;16.00;;;;;;;;;;4991386;28;20275;-67
2022/06/01 03:16:43;;;;;;;17.08;15.10;;;;;;;;;;4984214;28;20232;-66
2022/06/01 03:19:08;;;;;;;13.88;12.48;;;;;;;;;;4982972;28;20320;-65
2022/06/01 03:21:34;;;;;;;13.50;12.10;;;;;;;;;;4983821;28;20267;-67
2022/06/01 03:24:01;;;;;;;12.55;11.02;;;;;;;;;;4984268;28;20244;-67
2022/06/01 03:26:26;;;;;;;11.48;10.27;;;;;;;;;;5001863;28;20227;-68
2022/06/01 03:28:51;;;;;;;13.77;10.23;;;;;;;;;;4996156;28;20488;-68
2022/06/01 03:31:16;;;;;;;12.55;10.63;;;;;;;;;;4993005;28;20521;-68
2022/06/01 03:33:42;;;;;;;16.95;10.63;;;;;;;;;;4975416;28;20213;-68
2022/06/01 03:36:08;;;;;;;11.63;9.98;;;;;;;;;;5001136;28;20216;-67
2022/06/01 03:38:33;;;;;;;15.00;10.07;;;;;;;;;;5002471;28;20717;-69
2022/06/01 03:40:59;;;;;;;13.13;10.00;;;;;;;;;;5002846;28;20776;-69
2022/06/01 03:43:24;;;;;;;11.77;9.70;;;;;;;;;;4996618;28;20706;-70
2022/06/01 03:45:55;;;;;;;12.63;11.32;;;;;;;;;;4983875;28;20279;-69
2022/06/01 03:48:21;;;;;;;12.85;11.55;;;;;;;;;;5001564;28;20515;-70
2022/06/01 03:50:47;;;;;;;13.73;12.10;;;;;;;;;;4995452;28;20309;-69
2022/06/01 03:53:12;;;;;;;15.73;12.65;;;;;;;;;;4975233;28;20259;-69
2022/06/01 03:55:38;;;;;;;15.23;13.65;;;;;;;;;;4974583;28;20229;-69
2022/06/01 03:58:03;;;;;;;15.25;13.75;;;;;;;;;;4980503;28;20757;-69
2022/06/01 04:00:28;;;;;;;16.25;14.40;;;;;;;;;;4983221;28;20684;-70
2022/06/01 04:02:54;;;;;;;15.45;13.80;;;;;;;;;;4982339;28;20279;-70
2022/06/01 04:05:20;;;;;;;17.52;15.18;;;;;;;;;;4982881;28;20248;-70
2022/06/01 04:07:45;;;;;;;17.38;15.23;;;;;;;;;;5001290;28;20240;-69
2022/06/01 04:10:10;;;;;;;15.43;13.88;;;;;;;;;;5001344;28;20204;-69
2022/06/01 04:12:36;;;;;;;15.75;14.10;;;;;;;;;;4999409;28;20216;-71
2022/06/01 04:15:01;;;;;;;15.02;13.43;;;;;;;;;;4978077;28;20436;-69
2022/06/01 04:17:26;;;;;;;16.45;13.52;;;;;;;;;;4974143;28;20304;-70
2022/06/01 04:19:52;;;;;;;15.60;13.10;;;;;;;;;;4976984;28;20283;-71
2022/06/01 04:22:17;;;;;;;16.30;12.48;;;;;;;;;;4981496;28;20213;-70
2022/06/01 04:24:42;;;;;;;15.40;12.60;;;;;;;;;;5002050;28;20213;-69
2022/06/01 04:27:07;;;;;;;13.80;12.20;;;;;;;;;;5001801;28;20546;-68
2022/06/01 04:29:33;;;;;;;15.10;13.50;;;;;;;;;;5016434;28;20731;-69
2022/06/01 04:32:05;;;;;;;15.18;13.30;;;;;;;;;;4994991;28;20213;-68
2022/06/01 04:34:31;;;;;;;14.57;13.07;;;;;;;;;;5015952;28;20811;-66
2022/06/01 04:36:56;;;;;;;15.82;14.13;;;;;;;;;;4993822;28;20295;-69
2022/06/01 04:39:22;;;;;;;16.63;13.65;;;;;;;;;;4993494;28;20715;-69
2022/06/01 04:41:47;;;;;;;13.95;12.38;;;;;;;;;;4994392;28;20303;-69
2022/06/01 04:44:12;;;;;;;14.55;12.43;;;;;;;;;;4988426;28;20308;-68
2022/06/01 04:46:37;;;;;;;14.50;12.27;;;;;;;;;;4982552;28;20213;-69
2022/06/01 04:49:03;;;;;;;13.55;12.13;;;;;;;;;;4982060;28;20217;-69
2022/06/01 04:51:29;;;;;;;16.05;12.73;;;;;;;;;;4992977;28;20640;-70
2022/06/01 04:53:54;;;;;;;15.77;13.55;;;;;;;;;;4982049;28;20558;-69
2022/06/01 04:56:19;;;;;;;14.85;13.35;;;;;;;;;;5001230;28;20259;-69
2022/06/01 04:58:45;;;;;;;15.05;12.43;;;;;;;;;;4995430;28;20540;-70
2022/06/01 05:01:10;;;;;;;14.90;13.30;;;;;;;;;;4993705;28;20564;-70
2022/06/01 05:03:35;;;;;;;17.63;14.70;;;;;;;;;;4993578;28;20734;-69
2022/06/01 05:06:01;;;;;;;18.40;15.95;;;;;;;;;;4998557;28;20220;-66
2022/06/01 05:08:26;;;;;;;16.77;15.07;;;;;;;;;;5007353;28;20592;-69
2022/06/01 05:10:51;;;;;;;16.83;15.02;;;;;;;;;;4991632;28;20460;-65
2022/06/01 05:13:17;;;;;;;18.10;16.30;;;;;;;;;;4989511;28;20492;-66
2022/06/01 05:15:50;;;;;;;18.80;16.08;;;;;;;;;;4992053;28;20289;-71
2022/06/01 05:18:15;;;;;;;19.27;16.40;;;;;;;;;;4991180;28;20247;-65
2022/06/01 05:20:40;;;;;;;18.13;16.23;;;;;;;;;;5004660;28;20248;-64
2022/06/01 05:23:06;;;;;;;20.42;15.50;;;;;;;;;;5001843;28;20224;-64
2022/06/01 05:25:31;;;;;;;19.05;16.77;;;;;;;;;;4999321;28;20208;-65
2022/06/01 05:27:56;;;;;;;19.23;16.98;;;;;;;;;;5001555;28;20211;-65
2022/06/01 05:30:22;;;;;;;24.05;18.60;;;;;;;;;;5000982;28;20221;-67
2022/06/01 05:32:47;;;;;;;22.77;18.38;;;;;;;;;;5004730;28;20205;-65
2022/06/01 05:35:12;;;;;;;21.02;17.33;;;;;;;;;;5005203;28;20291;-65
2022/06/01 05:37:37;;;;;;;21.33;18.20;;;;;;;;;;5003128;28;20364;-67
2022/06/01 05:40:03;;;;;;;22.95;18.80;;;;;;;;;;5002666;28;20639;-65
2022/06/01 05:42:29;;;;;;;22.05;18.77;;;;;;;;;;5005713;28;20204;-66
2022/06/01 05:44:54;;;;;;;20.00;17.88;;;;;;;;;;5010820;28;20216;-65
2022/06/01 05:47:19;;;;;;;21.10;18.30;;;;;;;;;;5012693;28;20222;-64
2022/06/01 05:49:46;;;;;;;19.70;17.60;;;;;;;;;;5014265;28;20305;-64
2022/06/01 05:52:11;;;;;;;17.55;15.75;;;;;;;;;;5013742;28;20698;-64
2022/06/01 05:54:37;;;;;;;16.15;14.40;;;;;;;;;;5012958;28;20224;-64
2022/06/01 05:57:02;;;;;;;18.98;14.50;;;;;;;;;;5013416;28;20216;-65
2022/06/01 05:59:27;;;;;;;18.05;14.93;;;;;;;;;;5014023;28;20221;-65
2022/06/01 06:01:53;;;;;;;17.05;14.95;;;;;;;;;;5009119;28;20209;-64
2022/06/01 06:04:18;;;;;;;16.98;14.30;;;;;;;;;;5003993;28;20470;-63
2022/06/01 06:06:43;;;;;;;16.10;14.40;;;;;;;;;;5004727;28;20643;-63
2022/06/01 06:09:09;;;;;;;15.23;13.48;;;;;;;;;;5013964;28;20220;-64
2022/06/01 06:11:35;;;;;;;15.77;14.13;;;;;;;;;;5009770;28;20197;-63
2022/06/01 06:14:01;;;;;;;17.27;13.30;;;;;;;;;;5005818;28;20676;-63
2022/06/01 06:16:27;;;;;;;17.13;14.40;;;;;;;;;;5007741;28;20208;-63
2022/06/01 06:18:56;;;;;;;16.23;11.90;;;;;;;;;;5006053;28;20608;-64
2022/06/01 06:21:21;;;;;;;14.63;11.45;;;;;;;;;;5002420;28;20672;-63
2022/06/01 06:23:47;;;;;;;14.63;11.77;;;;;;;;;;5003831;28;20212;-64
2022/06/01 06:26:12;;;;;;;13.70;11.32;;;;;;;;;;5011701;28;20214;-64
2022/06/01 06:28:38;;;;;;;11.98;10.75;;;;;;;;;;5014032;28;20212;-64
2022/06/01 06:31:04;;;;;;;12.82;11.32;;;;;;;;;;5012743;28;20213;-64
2022/06/01 06:33:29;;;;;;;14.43;10.63;;;;;;;;;;5013711;28;20690;-64
2022/06/01 06:35:55;;;;;;;10.73;9.52;;;;;;;;;;5012855;28;20703;-65
2022/06/01 06:38:20;;;;;;;11.55;9.82;;;;;;;;;;5012110;28;20212;-65
2022/06/01 06:40:46;;;;;;;10.38;8.75;;;;;;;;;;5013493;28;20566;-65
2022/06/01 06:43:11;;;;;;;10.43;9.32;;;;;;;;;;5011024;28;20220;-65
2022/06/01 06:45:36;;;;;;;14.95;8.80;;;;;;;;;;4994267;28;20217;-65
2022/06/01 06:48:02;;;;;;;10.45;8.75;;;;;;;;;;4993769;28;20205;-65
2022/06/01 06:50:27;;;;;;;11.40;8.85;;;;;;;;;;4992216;28;20639;-65
2022/06/01 06:52:52;;;;;;;9.35;7.85;;;;;;;;;;5014630;28;20216;-65
2022/06/01 06:55:18;;;;;;;8.23;6.78;;;;;;;;;;5031360;28;20238;-65
2022/06/01 06:57:43;;;;;;;7.95;6.28;;;;;;;;;;5032702;28;20270;-65
2022/06/01 07:00:09;;;;;;;8.48;5.55;;;;;;;;;;5032750;28;20234;-65
2022/06/01 07:02:35;;;;;;;10.30;7.03;;;;;;;;;;5031754;28;20212;-64
2022/06/01 07:05:01;;;;;;;8.55;6.20;;;;;;;;;;5031948;28;20223;-64
2022/06/01 07:07:26;;;;;;;6.95;5.28;;;;;;;;;;5032411;28;20216;-65
2022/06/01 07:09:51;;;;;;;8.25;5.10;;;;;;;;;;5032896;28;20245;-64
2022/06/01 07:12:17;;;;;;;8.95;5.65;;;;;;;;;;5031851;28;20568;-65
2022/06/01 07:14:42;;;;;;;8.65;4.72;;;;;;;;;;5033346;28;20291;-65
2022/06/01 07:17:07;;;;;;;6.38;4.53;;;;;;;;;;5032327;28;20329;-65
2022/06/01 07:19:33;;;;;;;6.65;4.97;;;;;;;;;;5016719;28;20220;-65
2022/06/01 07:21:58;;;;;;;11.82;6.03;;;;;;;;;;5012454;28;20306;-64
2022/06/01 07:24:24;;;;;;;6.53;4.70;;;;;;;;;;5012467;28;20687;-65
2022/06/01 07:26:49;;;;;;;9.90;5.50;;;;;;;;;;5012305;28;20216;-65
2022/06/01 07:29:15;;;;;;;9.90;5.35;;;;;;;;;;5012395;28;20339;-64
2022/06/01 07:31:40;;;;;;;7.50;4.47;;;;;;;;;;5012268;28;20286;-65
2022/06/01 07:34:06;;;;;;;10.57;5.20;;;;;;;;;;5011568;28;20209;-62
2022/06/01 07:36:31;;;;;;;6.53;4.68;;;;;;;;;;5012191;28;20223;-62
2022/06/01 07:43:05;;;;;;;7.25;4.72;;;;;;;;;;5012333;28;20211;-61
2022/06/01 07:44:40;;;;;;;7.45;4.28;;;;;;;;;;4998359;28;20224;-61
2022/06/01 07:47:05;;;;;;;6.97;4.10;;;;;;;;;;4991601;28;20209;-62
2022/06/01 07:49:31;;;;;;;6.20;3.85;;;;;;;;;;4992808;28;20347;-61
2022/06/01 07:51:56;;;;;;;6.53;4.00;;;;;;;;;;4992882;28;20271;-61
2022/06/01 07:54:21;;;;;;;7.38;4.05;;;;;;;;;;4990979;28;20224;-61
2022/06/01 07:56:47;;;;;;;7.47;4.28;;;;;;;;;;4992455;28;20256;-61
2022/06/01 07:59:12;;;;;;;7.00;4.55;;;;;;;;;;4991945;28;20736;-62
2022/06/01 08:01:37;;;;;;;6.65;4.00;;;;;;;;;;4991680;28;20664;-62
2022/06/01 08:04:03;;;;;;;6.80;3.80;;;;;;;;;;4992164;28;20695;-64
2022/06/01 08:06:28;;;;;;;7.25;4.15;;;;;;;;;;4992372;28;20668;-64
2022/06/01 08:08:53;;;;;;;6.55;3.67;;;;;;;;;;4992185;28;20213;-63
2022/06/01 08:11:19;;;;;;;8.30;5.82;;;;;;;;;;4992002;28;20299;-62
2022/06/01 08:13:44;;;;;;;4.88;3.75;;;;;;;;;;4992218;28;20676;-62
2022/06/01 08:16:10;;;;;;;5.15;2.90;;;;;;;;;;4991025;28;20213;-62
2022/06/01 08:18:35;;;;;;;5.25;2.90;;;;;;;;;;4995689;28;20204;-66
2022/06/01 08:21:00;;;;;;;7.07;3.20;;;;;;;;;;4993962;28;20754;-65
2022/06/01 08:23:26;;;;;;;5.18;3.00;;;;;;;;;;4992053;28;20248;-66
2022/06/01 08:25:52;;;;;;;7.00;3.53;;;;;;;;;;4992598;28;20690;-66
2022/06/01 08:28:18;;;;;;;4.22;2.75;;;;;;;;;;4991827;28;20217;-65
2022/06/01 08:30:43;;;;;;;4.70;2.80;;;;;;;;;;4991258;28;20217;-65
2022/06/01 08:33:08;;;;;;;8.35;3.10;;;;;;;;;;5000867;28;20730;-65
2022/06/01 08:35:36;;;;;;;6.05;3.25;;;;;;;;;;5011086;28;20617;-66
2022/06/01 08:38:01;;;;;;;9.70;3.33;;;;;;;;;;5010295;28;20227;-66
2022/06/01 08:40:29;;;;;;;4.90;2.60;;;;;;;;;;5010504;28;20663;-67
2022/06/01 08:42:56;;;;;;;5.70;2.75;;;;;;;;;;5009436;28;20303;-67
2022/06/01 08:45:22;;;;;;;6.07;2.58;;;;;;;;;;4990557;28;20303;-67
2022/06/01 08:47:48;;;;;;;3.35;2.15;;;;;;;;;;4992051;28;20586;-69
2022/06/01 08:50:30;;;;;;;3.78;2.22;;;;;;;;;;4989959;28;20216;-68
2022/06/01 08:52:57;;;;;;;4.32;2.20;;;;;;;;;;4992118;28;20220;-67
2022/06/01 08:55:22;;;;;;;5.00;2.78;;;;;;;;;;4989981;28;20685;-67
2022/06/01 08:57:50;;;;;;;4.60;2.70;;;;;;;;;;4990804;28;20288;-67
2022/06/01 09:00:16;;;;;;;5.75;2.83;;;;;;;;;;4991088;28;20261;-67
2022/06/01 09:02:46;;;;;;;2.92;2.20;;;;;;;;;;4990915;28;20209;-66
2022/06/01 09:05:23;;;;;;;5.20;2.50;;;;;;;;;;4989749;28;20216;-66
2022/06/01 09:07:52;;;;;;;3.90;2.20;;;;;;;;;;4994867;28;20655;-66
2022/06/01 09:10:20;;;;;;;3.33;2.40;;;;;;;;;;4995263;28;20217;-67
2022/06/01 09:12:45;;;;;;;5.15;2.60;;;;;;;;;;4993815;28;20274;-68
2022/06/01 09:15:15;;;;;;;5.97;2.47;;;;;;;;;;4995419;28;20299;-67
2022/06/01 09:17:43;;;;;;;5.68;2.13;;;;;;;;;;4995151;28;20215;-66
2022/06/01 09:22:53;;;;;;;5.03;2.03;;;;;;;;;;5015079;28;20678;-66
2022/06/01 09:25:19;;;;;;;6.53;3.10;;;;;;;;;;5014007;28;20209;-65
2022/06/01 09:27:47;;;;;;;5.55;2.97;;;;;;;;;;5015188;28;20214;-66
2022/06/01 09:30:21;;;;;;;4.53;2.72;;;;;;;;;;5013482;28;20213;-64
2022/06/01 09:33:00;;;;;;;3.90;1.80;;;;;;;;;;5008229;28;20267;-66
2022/06/01 09:35:28;;;;;;;5.13;1.90;;;;;;;;;;4994899;28;20263;-65
2022/06/01 09:37:54;;;;;;;13.48;4.10;;;;;;;;;;4995069;28;20575;-66
2022/06/01 09:40:23;;;;;;;10.52;3.90;;;;;;;;;;4995146;28;20244;-65
2022/06/01 09:42:49;;;;;;;6.68;3.50;;;;;;;;;;5014681;28;20208;-66
2022/06/01 09:45:24;;;;;;;11.27;3.78;;;;;;;;;;4996607;28;20217;-65
2022/06/01 09:47:51;;;;;;;4.40;2.45;;;;;;;;;;4994227;28;20220;-66
2022/06/01 09:50:21;;;;;;;4.90;2.60;;;;;;;;;;4992824;28;20236;-65
2022/06/01 09:52:46;;;;;;;5.78;2.45;;;;;;;;;;4994426;28;20711;-66
2022/06/01 09:55:12;;;;;;;5.47;2.65;;;;;;;;;;4994581;28;20221;-63
2022/06/01 09:57:38;;;;;;;5.80;2.50;;;;;;;;;;4995317;28;20225;-66
2022/06/01 10:08:30;;;;;;;4.35;2.45;;;;;;;;;;5000032;28;20263;-65
2022/06/01 10:10:58;;;;;;;6.28;2.75;;;;;;;;;;4994583;28;20221;-64
2022/06/01 10:13:28;;;;;;;6.10;2.50;;;;;;;;;;4994261;28;20709;-64
2022/06/01 10:15:54;;;;;;;4.43;2.30;;;;;;;;;;4992919;28;20213;-65
2022/06/01 10:18:20;;;;;;;4.00;2.17;;;;;;;;;;4994958;28;20216;-64
2022/06/01 10:20:45;;;;;;;7.32;3.22;;;;;;;;;;4999795;28;20217;-64
2022/06/01 10:23:22;;;;;;;4.80;2.40;;;;;;;;;;4993310;28;20292;-64
2022/06/01 10:25:54;;;;;;;4.28;1.67;;;;;;;;;;4994699;28;20213;-65
2022/06/01 10:28:25;;;;;;;3.92;1.65;;;;;;;;;;4992114;28;20789;-65
2022/06/01 10:30:52;;;;;;;3.42;1.30;;;;;;;;;;4993225;28;20209;-64
2022/06/01 10:33:20;;;;;;;5.97;1.10;;;;;;;;;;5004297;28;20216;-65
2022/06/01 10:35:47;;;;;;;3.30;1.10;;;;;;;;;;5011448;28;20221;-64
2022/06/01 10:38:18;;;;;;;2.88;1.20;;;;;;;;;;5013352;28;20209;-64
2022/06/01 10:40:45;;;;;;;3.92;1.50;;;;;;;;;;5013704;28;20409;-64
2022/06/01 10:43:16;;;;;;;3.33;1.80;;;;;;;;;;5010181;28;20238;-64
2022/06/01 10:45:45;;;;;;;3.08;1.85;;;;;;;;;;4993077;28;20296;-65
2022/06/01 10:48:11;;;;;;;3.17;2.00;;;;;;;;;;4992474;28;20216;-65
2022/06/01 10:50:38;;;;;;;3.38;2.00;;;;;;;;;;4992810;28;20213;-65
2022/06/01 10:53:05;;;;;;;2.65;1.50;;;;;;;;;;4992308;28;20205;-65
2022/06/01 10:55:30;;;;;;;3.17;1.80;;;;;;;;;;4992657;28;20304;-65
2022/06/01 10:57:59;;;;;;;5.38;2.08;;;;;;;;;;4993434;28;20267;-65
2022/06/01 11:00:32;;;;;;;4.47;1.77;;;;;;;;;;4992225;28;20684;-65
2022/06/01 11:03:17;;;;;;;3.10;1.80;;;;;;;;;;4993539;28;20213;-64
2022/06/01 11:05:44;;;;;;;5.90;2.53;;;;;;;;;;4997703;28;20730;-64
2022/06/01 11:08:16;;;;;;;6.72;2.33;;;;;;;;;;4993531;28;20730;-63
2022/06/01 11:10:41;;;;;;;7.60;2.88;;;;;;;;;;4992934;28;20859;-63
2022/06/01 11:13:21;;;;;;;5.63;2.42;;;;;;;;;;5001176;28;20205;-64
2022/06/01 11:15:51;;;;;;;6.10;2.72;;;;;;;;;;5011534;28;20215;-64
2022/06/01 11:18:26;;;;;;;5.97;2.50;;;;;;;;;;5011623;28;20212;-64
2022/06/01 11:21:00;;;;;;;4.55;2.67;;;;;;;;;;5012900;28;20227;-64
2022/06/01 11:23:40;;;;;;;4.50;2.33;;;;;;;;;;5011755;28;20219;-63
2022/06/01 11:26:14;;;;;;;5.75;2.50;;;;;;;;;;5010559;28;20201;-63
2022/06/01 11:28:43;;;;;;;3.67;2.33;;;;;;;;;;5012253;28;20216;-64
2022/06/01 11:31:19;;;;;;;4.75;2.50;;;;;;;;;;5012182;28;20244;-63
2022/06/01 11:33:48;;;;;;;4.22;2.40;;;;;;;;;;4997696;28;20212;-64
2022/06/01 11:36:19;;;;;;;3.38;2.10;;;;;;;;;;4991202;28;20210;-65
2022/06/01 11:38:46;;;;;;;4.68;1.90;;;;;;;;;;4991061;28;20220;-65
2022/06/01 11:41:14;;;;;;;4.05;1.90;;;;;;;;;;4992461;28;20224;-63
2022/06/01 11:43:41;;;;;;;3.90;1.95;;;;;;;;;;4997310;28;20225;-68
2022/06/01 11:46:11;;;;;;;3.70;2.08;;;;;;;;;;5005201;28;20216;-66
2022/06/01 11:48:38;;;;;;;6.38;2.20;;;;;;;;;;4992874;28;20252;-68
2022/06/01 11:51:14;;;;;;;4.13;2.33;;;;;;;;;;4991979;28;20224;-67
2022/06/01 11:53:41;;;;;;;5.13;2.80;;;;;;;;;;4991689;28;20699;-66
2022/06/01 11:56:16;;;;;;;6.82;3.08;;;;;;;;;;4996605;28;20653;-66
2022/06/01 11:58:42;;;;;;;4.97;2.50;;;;;;;;;;5010098;28;20208;-66
2022/06/01 12:01:13;;;;;;;6.07;2.90;;;;;;;;;;4993535;28;20232;-65
2022/06/01 12:03:40;;;;;;;5.75;2.80;;;;;;;;;;4992503;28;20294;-66
2022/06/01 12:06:08;;;;;;;3.80;2.60;;;;;;;;;;4991721;28;20605;-66
2022/06/01 12:08:38;;;;;;;3.42;2.50;;;;;;;;;;4990521;28;20214;-65
2022/06/01 12:11:05;;;;;;;4.57;2.70;;;;;;;;;;4990861;28;20208;-65
2022/06/01 12:13:31;;;;;;;7.22;3.50;;;;;;;;;;4991910;28;20575;-66
2022/06/01 12:16:04;;;;;;;6.60;3.40;;;;;;;;;;4992182;28;20216;-66
2022/06/01 12:18:29;;;;;;;6.55;3.75;;;;;;;;;;5003148;28;20382;-66
2022/06/01 12:21:14;;;;;;;7.78;3.42;;;;;;;;;;4993728;28;20304;-66
2022/06/01 12:29:30;;;;;;;4.93;3.70;;;;;;;;;;4990857;28;20220;-66
2022/06/01 12:31:55;;;;;;;5.85;3.80;;;;;;;;;;4991928;28;20216;-66
2022/06/01 12:34:21;;;;;;;13.20;4.32;;;;;;;;;;5010328;28;20213;-66
2022/06/01 12:36:48;;;;;;;5.47;3.80;;;;;;;;;;5011239;28;20212;-66
2022/06/01 12:39:13;;;;;;;6.93;4.13;;;;;;;;;;5010934;28;20247;-65
2022/06/01 12:41:39;;;;;;;8.23;4.78;;;;;;;;;;5010573;28;20675;-66
2022/06/01 12:44:04;;;;;;;7.07;4.38;;;;;;;;;;5001302;28;20216;-65
2022/06/01 12:46:30;;;;;;;6.53;3.83;;;;;;;;;;4992210;28;20209;-67
2022/06/01 12:49:14;;;;;;;6.82;3.30;;;;;;;;;;4990976;28;20232;-66
2022/06/01 12:51:41;;;;;;;4.03;2.50;;;;;;;;;;4991404;28;20213;-66
2022/06/01 12:54:06;;;;;;;5.78;1.27;;;;;;;;;;4991265;28;20237;-67
2022/06/01 12:56:31;;;;;;;2.35;1.10;;;;;;;;;;4991009;28;20220;-66
2022/06/01 12:58:56;;;;;;;2.60;1.02;;;;;;;;;;4990768;28;20213;-66
2022/06/01 13:01:27;;;;;;;1.50;0.85;;;;;;;;;;4994545;28;20216;-66
2022/06/01 13:03:56;;;;;;;2.83;0.73;;;;;;;;;;5010549;28;20205;-66
2022/06/01 13:06:22;;;;;;;5.45;1.00;;;;;;;;;;5010712;28;20901;-65
2022/06/01 13:08:56;;;;;;;4.55;1.10;;;;;;;;;;5010103;28;20205;-66
2022/06/01 13:11:22;;;;;;;0.60;0.50;;;;;;;;;;5010250;28;20252;-66
2022/06/01 13:13:48;;;;;;;3.97;0.80;;;;;;;;;;5011672;28;20217;-66
2022/06/01 13:16:13;;;;;;;1.15;0.65;;;;;;;;;;5011066;28;20209;-66
2022/06/01 13:18:41;;;;;;;2.72;0.80;;;;;;;;;;5002503;28;20676;-66
2022/06/01 13:21:08;;;;;;;1.35;0.60;;;;;;;;;;5007848;28;20954;-66
2022/06/01 13:23:38;;;;;;;2.60;0.57;;;;;;;;;;5011241;28;20259;-66
2022/06/01 13:26:04;;;;;;;2.67;0.68;;;;;;;;;;5009007;28;20633;-65
2022/06/01 13:28:30;;;;;;;2.80;0.60;;;;;;;;;;5010120;28;20303;-66
2022/06/01 13:30:56;;;;;;;0.45;0.40;;;;;;;;;;5010487;28;20303;-66
2022/06/01 13:33:23;;;;;;;0.60;0.60;;;;;;;;;;4990621;28;20215;-65
2022/06/01 13:35:54;;;;;;;2.22;0.52;;;;;;;;;;5005552;28;20200;-65
2022/06/01 13:38:20;;;;;;;2.65;0.70;;;;;;;;;;5009938;28;20209;-65
2022/06/01 13:40:51;;;;;;;0.70;0.63;;;;;;;;;;5011142;28;20626;-65
2022/06/01 13:43:16;;;;;;;1.85;0.70;;;;;;;;;;5007373;28;20215;-65
2022/06/01 13:45:47;;;;;;;1.48;0.77;;;;;;;;;;4989716;28;20201;-65
2022/06/01 13:48:15;;;;;;;2.45;1.15;;;;;;;;;;4990828;28;20205;-65
2022/06/01 13:50:42;;;;;;;4.00;1.35;;;;;;;;;;4990937;28;20724;-65
2022/06/01 13:53:21;;;;;;;2.45;0.75;;;;;;;;;;4990876;28;20292;-66
2022/06/01 13:55:58;;;;;;;3.17;0.85;;;;;;;;;;4994948;28;20236;-66
2022/06/01 13:58:31;;;;;;;1.77;0.80;;;;;;;;;;4993070;28;20660;-66
2022/06/01 14:01:04;;;;;;;3.78;0.85;;;;;;;;;;4994086;28;20229;-67
2022/06/01 14:03:33;;;;;;;4.40;1.10;;;;;;;;;;5001161;28;20209;-66
2022/06/01 14:06:00;;;;;;;2.70;0.70;;;;;;;;;;4994117;28;20260;-66
2022/06/01 14:08:32;;;;;;;1.98;0.70;;;;;;;;;;4994579;28;20209;-66
2022/06/01 14:10:58;;;;;;;1.10;0.80;;;;;;;;;;4994554;28;20213;-66
2022/06/01 14:13:24;;;;;;;1.13;0.75;;;;;;;;;;4993560;28;20216;-66
2022/06/01 14:15:49;;;;;;;1.48;0.80;;;;;;;;;;4994598;28;20292;-66
2022/06/01 14:18:20;;;;;;;3.47;1.50;;;;;;;;;;4992119;28;20239;-67
2022/06/01 14:20:46;;;;;;;2.35;1.00;;;;;;;;;;5012128;28;20355;-65
2022/06/01 14:23:11;;;;;;;2.05;0.90;;;;;;;;;;5013916;28;20700;-65
2022/06/01 14:28:29;;;;;;;1.67;0.68;;;;;;;;;;5012792;28;20258;-66
2022/06/01 14:30:55;;;;;;;1.52;0.60;;;;;;;;;;5014215;28;20212;-66
2022/06/01 14:33:20;;;;;;;1.55;0.80;;;;;;;;;;5001152;28;20247;-66
2022/06/01 14:35:45;;;;;;;1.45;0.68;;;;;;;;;;4993821;28;20272;-66
2022/06/01 14:38:11;;;;;;;2.58;0.80;;;;;;;;;;4993795;28;20228;-64
2022/06/01 14:40:36;;;;;;;1.77;1.05;;;;;;;;;;4993873;28;20731;-65
2022/06/01 14:43:03;;;;;;;2.63;0.90;;;;;;;;;;4993144;28;20216;-64
2022/06/01 14:45:28;;;;;;;2.10;0.70;;;;;;;;;;5012741;28;20201;-65
2022/06/01 14:47:54;;;;;;;1.10;0.90;;;;;;;;;;5013537;28;20212;-66
2022/06/01 14:50:19;;;;;;;4.00;1.33;;;;;;;;;;5012256;28;20235;-66
2022/06/01 14:52:44;;;;;;;3.45;1.33;;;;;;;;;;5013335;28;20208;-65
2022/06/01 14:55:10;;;;;;;5.57;1.40;;;;;;;;;;5011307;28;20231;-65
2022/06/01 14:57:35;;;;;;;1.95;1.30;;;;;;;;;;5013117;28;20656;-65